createdAt,value
2018-12-22T00:00:24.692Z,409.73
2018-12-22T00:02:54.968Z,376.40
2018-12-22T00:05:25.261Z,362.43
2018-12-22T00:07:55.368Z,401.83
2018-12-22T00:10:25.621Z,405.53
2018-12-22T00:12:55.813Z,366.90
2018-12-22T00:15:26.207Z,360.33
2018-12-22T00:17:56.298Z,381.13
2018-12-22T00:20:26.519Z,348.73
2018-12-22T00:22:56.729Z,361.73
2018-12-22T00:25:27.051Z,409.50
2018-12-22T00:27:57.260Z,409.00
2018-12-22T00:30:27.528Z,360.40
2018-12-22T00:32:58.346Z,366.00
2018-12-22T00:35:28.568Z,372.10
2018-12-22T00:37:58.777Z,381.13
2018-12-22T00:40:28.994Z,401.40
2018-12-22T00:42:59.185Z,399.33
2018-12-22T00:45:29.377Z,445.17
2018-12-22T00:47:59.565Z,428.93
2018-12-22T00:50:29.805Z,471.97
2018-12-22T00:53:00.056Z,443.47
2018-12-22T00:55:30.245Z,432.83
2018-12-22T00:58:00.460Z,440.90
2018-12-22T01:00:30.758Z,484.63
2018-12-22T01:03:00.924Z,472.37
2018-12-22T01:05:31.024Z,459.37
2018-12-22T01:08:01.259Z,449.40
2018-12-22T01:10:31.617Z,449.03
2018-12-22T01:13:01.942Z,433.73
2018-12-22T01:15:32.219Z,436.97
2018-12-22T01:18:02.583Z,446.87
2018-12-22T01:20:33.019Z,442.37
2018-12-22T01:23:03.460Z,427.00
2018-12-22T01:25:33.653Z,429.67
2018-12-22T01:28:03.799Z,412.97
2018-12-22T01:30:34.029Z,429.77
2018-12-22T01:33:04.409Z,411.03
2018-12-22T01:35:34.572Z,397.80
2018-12-22T01:38:05.004Z,349.87
2018-12-22T01:40:35.080Z,300.50
2018-12-22T01:43:05.431Z,316.50
2018-12-22T01:45:35.675Z,324.13
2018-12-22T01:48:05.954Z,324.83
2018-12-22T01:50:36.221Z,333.47
2018-12-22T01:53:06.689Z,337.13
2018-12-22T01:55:37.114Z,391.77
2018-12-22T01:58:07.815Z,346.23
2018-12-22T02:00:38.031Z,365.43
2018-12-22T02:03:08.293Z,382.40
2018-12-22T02:05:38.505Z,370.57
2018-12-22T02:08:08.868Z,379.40
2018-12-22T02:10:40.117Z,380.73
2018-12-22T02:13:10.339Z,380.17
2018-12-22T02:15:40.404Z,385.00
2018-12-22T02:18:10.687Z,391.73
2018-12-22T02:20:41.094Z,379.70
2018-12-22T02:23:11.364Z,386.43
2018-12-22T02:25:41.537Z,367.73
2018-12-22T02:28:11.830Z,377.73
2018-12-22T02:30:42.049Z,377.87
2018-12-22T02:33:12.283Z,422.37
2018-12-22T02:35:43.289Z,433.23
2018-12-22T02:38:13.586Z,435.17
2018-12-22T02:40:43.822Z,422.77
2018-12-22T02:43:14.084Z,399.13
2018-12-22T02:45:44.358Z,383.33
2018-12-22T02:48:14.661Z,384.73
2018-12-22T02:50:45.011Z,397.60
2018-12-22T02:53:15.287Z,399.70
2018-12-22T02:55:45.567Z,412.57
2018-12-22T02:58:15.771Z,429.47
2018-12-22T03:00:47.177Z,413.17
2018-12-22T03:03:17.407Z,427.43
2018-12-22T03:05:47.679Z,452.40
2018-12-22T03:08:17.977Z,438.77
2018-12-22T03:10:48.209Z,428.30
2018-12-22T03:13:18.456Z,412.40
2018-12-22T03:15:48.864Z,396.87
2018-12-22T03:18:18.879Z,402.30
2018-12-22T03:20:49.142Z,402.47
2018-12-22T03:23:19.412Z,342.27
2018-12-22T03:25:49.659Z,351.63
2018-12-22T03:28:19.897Z,328.77
2018-12-22T03:30:50.768Z,341.53
2018-12-22T03:33:20.993Z,324.50
2018-12-22T03:35:51.253Z,340.33
2018-12-22T03:38:21.564Z,320.53
2018-12-22T03:40:51.869Z,322.20
2018-12-22T03:43:22.675Z,364.07
2018-12-22T03:45:52.862Z,367.90
2018-12-22T03:48:23.189Z,353.43
2018-12-22T03:50:53.456Z,331.13
2018-12-22T03:53:23.702Z,321.87
2018-12-22T03:55:53.964Z,336.33
2018-12-22T03:58:24.427Z,338.17
2018-12-22T04:00:54.681Z,338.83
2018-12-22T04:03:24.979Z,337.40
2018-12-22T04:05:55.796Z,321.57
2018-12-22T04:08:26.109Z,386.57
2018-12-22T04:10:56.521Z,361.20
2018-12-22T04:13:26.716Z,373.23
2018-12-22T04:15:57.591Z,356.60
2018-12-22T04:18:27.832Z,344.63
2018-12-22T04:20:58.068Z,336.97
2018-12-22T04:23:28.313Z,355.10
2018-12-22T04:25:58.515Z,329.43
2018-12-22T04:28:28.592Z,412.60
2018-12-22T04:30:58.826Z,310.43
2018-12-22T04:33:28.921Z,355.00
2018-12-22T04:35:59.158Z,327.40
2018-12-22T04:38:29.454Z,317.73
2018-12-22T04:40:59.639Z,311.53
2018-12-22T04:43:29.932Z,274.20
2018-12-22T04:46:00.445Z,293.67
2018-12-22T04:48:30.683Z,288.37
2018-12-22T04:51:00.840Z,326.53
2018-12-22T04:53:32.234Z,288.97
2018-12-22T04:56:02.439Z,301.87
2018-12-22T04:58:32.639Z,288.73
2018-12-22T05:01:02.716Z,278.60
2018-12-22T05:03:32.948Z,269.53
2018-12-22T05:06:03.161Z,266.30
2018-12-22T05:08:33.397Z,268.60
2018-12-22T05:11:03.655Z,251.53
2018-12-22T05:13:33.834Z,261.20
2018-12-22T05:16:04.416Z,254.03
2018-12-22T05:18:34.682Z,251.70
2018-12-22T05:21:05.413Z,246.60
2018-12-22T05:23:35.624Z,246.60
2018-12-22T05:26:06.553Z,258.13
2018-12-22T05:28:36.752Z,237.23
2018-12-22T05:31:06.949Z,276.17
2018-12-22T05:33:37.241Z,296.43
2018-12-22T05:36:07.540Z,299.10
2018-12-22T05:38:37.769Z,319.27
2018-12-22T05:41:08.229Z,334.47
2018-12-22T05:43:38.466Z,286.83
2018-12-22T05:46:08.676Z,320.10
2018-12-22T05:48:38.912Z,340.60
2018-12-22T05:51:09.176Z,381.50
2018-12-22T05:53:39.432Z,366.10
2018-12-22T05:56:09.589Z,368.13
2018-12-22T05:58:40.374Z,354.30
2018-12-22T06:01:10.710Z,368.47
2018-12-22T06:03:40.910Z,402.23
2018-12-22T06:06:11.669Z,397.50
2018-12-22T06:08:41.924Z,414.20
2018-12-22T06:11:12.196Z,402.93
2018-12-22T06:13:43.523Z,423.27
2018-12-22T06:16:13.751Z,396.70
2018-12-22T06:18:43.915Z,400.43
2018-12-22T06:21:14.255Z,394.93
2018-12-22T06:23:44.542Z,404.73
2018-12-22T06:26:14.750Z,400.30
2018-12-22T06:28:44.949Z,366.30
2018-12-22T06:31:15.142Z,344.97
2018-12-22T06:33:45.277Z,323.30
2018-12-22T06:36:15.563Z,304.13
2018-12-22T06:38:45.871Z,277.50
2018-12-22T06:41:16.189Z,265.43
2018-12-22T06:43:46.968Z,231.83
2018-12-22T06:46:17.241Z,226.57
2018-12-22T06:48:47.383Z,238.53
2018-12-22T06:51:17.518Z,207.07
2018-12-22T06:53:47.610Z,218.10
2018-12-22T06:56:17.950Z,227.63
2018-12-22T06:58:48.024Z,240.93
2018-12-22T07:01:18.308Z,261.90
2018-12-22T07:03:48.608Z,243.53
2018-12-22T07:06:19.280Z,292.00
2018-12-22T07:08:49.603Z,298.37
2018-12-22T07:11:19.932Z,283.40
2018-12-22T07:13:50.500Z,261.80
2018-12-22T07:16:20.867Z,294.67
2018-12-22T07:18:51.256Z,289.77
2018-12-22T07:21:21.373Z,255.00
2018-12-22T07:23:51.548Z,251.90
2018-12-22T07:26:22.527Z,251.50
2018-12-22T07:28:52.789Z,260.33
2018-12-22T07:31:22.857Z,256.90
2018-12-22T07:33:53.157Z,238.67
2018-12-22T07:36:25.248Z,241.90
2018-12-22T07:38:55.678Z,253.33
2018-12-22T07:41:25.967Z,264.63
2018-12-22T07:43:56.809Z,246.47
2018-12-22T07:46:27.104Z,247.97
2018-12-22T07:48:57.369Z,235.17
2018-12-22T07:51:27.593Z,222.57
2018-12-22T07:53:57.859Z,210.70
2018-12-22T07:56:28.094Z,204.57
2018-12-22T07:58:58.447Z,179.83
2018-12-22T08:01:28.640Z,189.73
2018-12-22T08:05:28.267Z,190.57
2018-12-22T08:07:58.534Z,181.40
2018-12-22T08:10:28.747Z,204.77
2018-12-22T08:12:58.860Z,189.40
2018-12-22T08:15:29.125Z,217.53
2018-12-22T08:17:59.407Z,214.83
2018-12-22T08:20:30.176Z,242.97
2018-12-22T08:23:00.348Z,228.13
2018-12-22T08:25:30.692Z,230.97
2018-12-22T08:28:00.886Z,229.17
2018-12-22T08:30:31.062Z,244.53
2018-12-22T08:33:01.305Z,226.67
2018-12-22T08:35:31.620Z,227.37
2018-12-22T08:38:01.891Z,230.20
2018-12-22T08:40:32.260Z,243.83
2018-12-22T08:43:02.502Z,241.23
2018-12-22T08:45:32.912Z,236.77
2018-12-22T08:48:03.147Z,228.07
2018-12-22T08:50:33.673Z,222.23
2018-12-22T08:53:03.819Z,227.33
2018-12-22T08:55:34.078Z,200.47
2018-12-22T08:58:04.272Z,209.73
2018-12-22T09:00:34.520Z,207.40
2018-12-22T09:07:45.412Z,233.43
2018-12-22T09:13:37.156Z,209.70
2018-12-22T09:16:07.540Z,230.77
2018-12-22T09:18:37.840Z,233.47
2018-12-22T09:21:08.045Z,235.00
2018-12-22T09:23:38.392Z,236.20
2018-12-22T09:26:08.669Z,216.93
2018-12-22T09:28:39.433Z,214.83
2018-12-22T09:31:09.740Z,219.40
2018-12-22T09:33:39.840Z,211.47
2018-12-22T09:36:10.170Z,212.30
2018-12-22T09:38:40.427Z,222.35
2018-12-22T09:41:10.714Z,219.30
2018-12-22T09:43:41.713Z,197.60
2018-12-22T09:46:12.096Z,208.20
2018-12-22T09:48:42.924Z,217.87
2018-12-22T09:51:13.252Z,212.87
2018-12-22T09:53:43.493Z,231.67
2018-12-22T09:56:13.732Z,232.37
2018-12-22T09:58:44.647Z,218.40
2018-12-22T10:01:15.074Z,222.60
2018-12-22T10:03:45.328Z,201.27
2018-12-22T10:06:15.543Z,206.93
2018-12-22T10:08:45.752Z,198.10
2018-12-22T10:11:15.965Z,200.93
2018-12-22T10:13:46.056Z,199.80
2018-12-22T10:16:16.248Z,201.20
2018-12-22T10:18:46.570Z,193.60
2018-12-22T10:21:16.937Z,211.43
2018-12-22T10:23:47.240Z,191.33
2018-12-22T10:26:17.453Z,205.87
2018-12-22T10:28:47.687Z,211.27
2018-12-22T10:31:19.025Z,217.97
2018-12-22T10:33:49.264Z,216.57
2018-12-22T10:36:19.456Z,211.33
2018-12-22T10:38:49.791Z,231.23
2018-12-22T10:41:20.479Z,214.97
2018-12-22T10:43:50.499Z,230.17
2018-12-22T10:46:20.765Z,231.97
2018-12-22T10:48:51.252Z,234.63
2018-12-22T10:51:24.326Z,232.83
2018-12-22T10:53:54.152Z,224.97
2018-12-22T10:56:24.485Z,216.27
2018-12-22T10:58:54.651Z,278.30
2018-12-22T11:01:26.594Z,234.90
2018-12-22T11:03:57.237Z,227.90
2018-12-22T11:06:27.614Z,222.43
2018-12-22T11:08:58.508Z,224.70
2018-12-22T11:11:28.767Z,221.40
2018-12-22T11:13:59.072Z,230.30
2018-12-22T11:16:29.730Z,221.13
2018-12-22T11:19:00.081Z,224.60
2018-12-22T11:21:31.180Z,233.70
2018-12-22T11:24:02.910Z,225.23
2018-12-22T11:26:34.949Z,235.63
2018-12-22T11:29:05.601Z,237.57
2018-12-22T11:31:35.902Z,232.30
2018-12-22T11:34:06.307Z,228.60
2018-12-22T11:36:38.038Z,241.37
2018-12-22T11:39:08.911Z,259.67
2018-12-22T11:41:39.306Z,245.70
2018-12-22T11:44:09.902Z,247.53
2018-12-22T11:46:41.048Z,249.33
2018-12-22T11:49:21.014Z,234.17
2018-12-22T11:51:51.329Z,250.23
2018-12-22T11:54:22.610Z,253.27
2018-12-22T11:56:52.828Z,233.43
2018-12-22T11:59:23.191Z,249.83
2018-12-22T12:01:53.460Z,252.53
2018-12-22T12:04:30.035Z,257.10
2018-12-22T12:07:00.395Z,249.07
2018-12-22T12:09:30.650Z,260.47
2018-12-22T12:12:00.906Z,260.30
2018-12-22T12:14:32.331Z,251.47
2018-12-22T12:17:13.506Z,262.73
2018-12-22T12:19:43.788Z,337.40
2018-12-22T12:22:14.445Z,327.70
2018-12-22T12:24:45.498Z,354.33
2018-12-22T12:27:15.536Z,341.23
2018-12-22T12:29:45.774Z,338.57
2018-12-22T12:35:01.955Z,364.10
2018-12-22T12:37:32.323Z,361.47
2018-12-22T12:40:02.587Z,364.13
2018-12-22T12:42:34.143Z,359.13
2018-12-22T12:45:05.014Z,359.23
2018-12-22T12:48:18.168Z,347.20
2018-12-22T12:50:48.571Z,370.53
2018-12-22T12:53:19.342Z,348.03
2018-12-22T12:55:49.613Z,364.70
2018-12-22T12:58:20.497Z,313.97
2018-12-22T13:00:50.912Z,356.17
2018-12-22T13:03:21.378Z,273.53
2018-12-22T13:05:51.682Z,296.87
2018-12-22T13:08:22.637Z,380.07
2018-12-22T13:10:52.955Z,286.27
2018-12-22T13:13:38.030Z,305.00
2018-12-22T13:16:08.302Z,303.47
2018-12-22T13:18:39.401Z,340.50
2018-12-22T13:21:10.263Z,333.63
2018-12-22T13:23:40.647Z,299.97
2018-12-22T13:26:10.910Z,288.53
2018-12-22T13:28:41.342Z,306.07
2018-12-22T13:31:11.896Z,446.73
2018-12-22T13:33:42.318Z,355.17
2018-12-22T13:36:12.883Z,320.00
2018-12-22T13:38:48.397Z,340.00
2018-12-22T13:41:18.457Z,350.30
2018-12-22T13:43:48.836Z,346.40
2018-12-22T13:46:19.248Z,346.07
2018-12-22T13:48:50.391Z,350.40
2018-12-22T13:51:20.944Z,338.70
2018-12-22T13:53:51.186Z,348.07
2018-12-22T13:56:21.538Z,340.23
2018-12-22T13:58:51.759Z,368.13
2018-12-22T14:01:23.062Z,343.80
2018-12-22T14:03:53.629Z,351.67
2018-12-22T14:06:30.194Z,314.27
2018-12-22T14:09:00.602Z,342.67
2018-12-22T14:11:30.925Z,295.60
2018-12-22T14:14:01.221Z,274.30
2018-12-22T14:16:49.157Z,279.87
2018-12-22T14:19:19.670Z,254.17
2018-12-22T14:21:50.707Z,272.07
2018-12-22T14:24:39.698Z,265.67
2018-12-22T14:27:09.928Z,281.27
2018-12-22T14:29:40.880Z,285.20
2018-12-22T14:32:11.066Z,320.63
2018-12-22T14:34:51.466Z,290.40
2018-12-22T14:37:21.731Z,285.43
2018-12-22T14:39:52.209Z,295.10
2018-12-22T14:42:22.552Z,306.23
2018-12-22T14:44:52.890Z,321.73
2018-12-22T14:47:23.202Z,333.20
2018-12-22T14:49:53.550Z,294.53
2018-12-22T14:52:23.652Z,316.30
2018-12-22T14:54:53.917Z,324.40
2018-12-22T14:57:24.985Z,294.43
2018-12-22T14:59:55.211Z,282.37
2018-12-22T15:02:25.548Z,288.33
2018-12-22T15:04:55.897Z,277.93
2018-12-22T15:07:26.135Z,298.60
2018-12-22T15:09:56.371Z,294.07
2018-12-22T15:12:27.292Z,308.33
2018-12-22T15:14:58.689Z,313.87
2018-12-22T15:17:29.857Z,296.10
2018-12-22T15:20:00.383Z,314.97
2018-12-22T15:22:31.532Z,303.97
2018-12-22T15:25:02.127Z,310.27
2018-12-22T15:27:33.114Z,353.00
2018-12-22T15:30:03.559Z,354.37
2018-12-22T15:32:34.330Z,331.50
2018-12-22T15:35:05.063Z,377.13
2018-12-22T15:37:36.065Z,364.23
2018-12-22T15:40:06.702Z,311.50
2018-12-22T15:42:37.722Z,331.70
2018-12-22T15:45:10.727Z,317.17
2018-12-22T15:47:42.417Z,365.07
2018-12-22T15:50:15.556Z,322.70
2018-12-22T15:52:45.747Z,330.93
2018-12-22T15:55:16.155Z,325.63
2018-12-22T15:57:46.304Z,531.50
2018-12-22T16:00:16.596Z,611.83
2018-12-22T16:02:53.050Z,478.37
2018-12-22T16:05:22.159Z,429.17
2018-12-22T16:07:53.284Z,414.77
2018-12-22T16:10:24.211Z,416.90
2018-12-22T16:12:55.027Z,461.17
2018-12-22T16:15:25.364Z,525.47
2018-12-22T16:17:55.753Z,485.73
2018-12-22T16:20:26.996Z,425.67
2018-12-22T16:23:02.157Z,351.10
2018-12-22T16:25:33.089Z,291.70
2018-12-22T16:28:13.820Z,282.63
2018-12-22T16:30:49.619Z,277.30
2018-12-22T16:33:20.599Z,304.00
2018-12-22T16:35:50.844Z,293.57
2018-12-22T16:38:21.231Z,305.63
2018-12-22T16:40:52.042Z,336.77
2018-12-22T16:43:22.413Z,320.63
2018-12-22T16:45:53.205Z,293.80
2018-12-22T16:48:25.501Z,313.30
2018-12-22T16:50:56.654Z,311.67
2018-12-22T16:53:29.091Z,314.67
2018-12-22T16:55:59.607Z,346.17
2018-12-22T16:58:33.811Z,349.20
2018-12-22T17:01:18.205Z,438.63
2018-12-22T17:03:49.697Z,498.43
2018-12-22T17:06:21.002Z,523.63
2018-12-22T17:08:52.188Z,542.17
2018-12-22T17:11:23.677Z,482.93
2018-12-22T17:13:53.911Z,475.57
2018-12-22T17:16:26.249Z,512.37
2018-12-22T17:18:56.794Z,521.93
2018-12-22T17:21:32.647Z,479.60
2018-12-22T17:24:09.981Z,460.00
2018-12-22T17:26:43.592Z,460.27
2018-12-22T17:29:14.245Z,367.60
2018-12-22T17:31:46.423Z,333.33
2018-12-22T17:34:16.645Z,310.53
2018-12-22T17:36:46.973Z,314.37
2018-12-22T17:39:18.011Z,301.23
2018-12-22T17:41:48.711Z,318.97
2018-12-22T17:44:19.086Z,304.13
2018-12-22T17:46:49.342Z,333.20
2018-12-22T17:49:19.710Z,412.00
2018-12-22T17:51:50.110Z,445.53
2018-12-22T17:54:21.274Z,400.63
2018-12-22T17:56:51.412Z,399.20
2018-12-22T17:59:21.696Z,343.80
2018-12-22T18:01:51.850Z,403.33
2018-12-22T18:04:22.206Z,427.93
2018-12-22T18:06:53.196Z,553.77
2018-12-22T18:09:24.433Z,839.60
2018-12-22T18:11:54.793Z,803.33
2018-12-22T18:14:25.214Z,609.10
2018-12-22T18:16:55.663Z,655.27
2018-12-22T18:19:25.870Z,666.70
2018-12-22T18:21:56.145Z,654.90
2018-12-22T18:24:26.460Z,608.03
2018-12-22T18:26:56.947Z,581.40
2018-12-22T18:29:27.143Z,595.20
2018-12-22T18:31:57.687Z,585.33
2018-12-22T18:34:27.921Z,583.00
2018-12-22T18:36:58.130Z,522.73
2018-12-22T18:39:29.037Z,525.87
2018-12-22T18:41:59.477Z,467.93
2018-12-22T18:44:29.457Z,446.50
2018-12-22T18:46:59.773Z,395.93
2018-12-22T18:49:30.241Z,376.67
2018-12-22T18:52:00.668Z,372.80
2018-12-22T18:54:30.841Z,354.23
2018-12-22T18:57:01.699Z,349.03
2018-12-22T18:59:31.971Z,309.97
2018-12-22T19:02:02.126Z,342.77
2018-12-22T19:04:32.460Z,324.93
2018-12-22T19:07:02.889Z,331.10
2018-12-22T19:09:34.922Z,318.17
2018-12-22T19:12:10.779Z,329.47
2018-12-22T19:14:41.097Z,336.53
2018-12-22T19:17:11.477Z,326.00
2018-12-22T19:19:41.761Z,339.37
2018-12-22T19:22:11.866Z,416.57
2018-12-22T19:24:42.157Z,399.67
2018-12-22T19:27:12.608Z,370.70
2018-12-22T19:29:43.012Z,370.17
2018-12-22T19:32:13.260Z,380.70
2018-12-22T19:34:43.579Z,357.83
2018-12-22T19:37:14.291Z,393.53
2018-12-22T19:39:44.506Z,470.27
2018-12-22T19:42:14.799Z,490.73
2018-12-22T19:44:45.098Z,497.17
2018-12-22T19:47:15.401Z,502.47
2018-12-22T19:49:45.843Z,492.63
2018-12-22T19:52:16.062Z,482.77
2018-12-22T19:54:46.187Z,483.50
2018-12-22T19:57:16.459Z,509.90
2018-12-22T19:59:46.624Z,552.57
2018-12-22T20:02:16.870Z,549.27
2018-12-22T20:04:47.177Z,543.53
2018-12-22T20:07:17.476Z,563.80
2018-12-22T20:09:48.384Z,614.83
2018-12-22T20:12:18.585Z,630.57
2018-12-22T20:14:48.764Z,596.37
2018-12-22T20:17:19.239Z,602.37
2018-12-22T20:19:49.533Z,493.30
2018-12-22T20:22:19.736Z,588.33
2018-12-22T20:24:50.551Z,572.07
2018-12-22T20:27:20.998Z,492.53
2018-12-22T20:29:51.165Z,460.10
2018-12-22T20:32:21.612Z,392.40
2018-12-22T20:34:51.944Z,359.87
2018-12-22T20:37:22.024Z,346.10
2018-12-22T20:39:52.252Z,311.60
2018-12-22T20:42:22.309Z,342.67
2018-12-22T20:44:52.630Z,281.70
2018-12-22T20:47:22.746Z,360.00
2018-12-22T20:49:53.074Z,286.63
2018-12-22T20:52:23.245Z,356.53
2018-12-22T20:54:53.482Z,369.20
2018-12-22T20:57:23.730Z,358.13
2018-12-22T20:59:53.976Z,343.50
2018-12-22T21:02:24.421Z,344.73
2018-12-22T21:04:54.581Z,376.30
2018-12-22T21:07:24.955Z,409.07
2018-12-22T21:09:55.172Z,465.97
2018-12-22T21:12:25.352Z,462.33
2018-12-22T21:14:55.401Z,456.13
2018-12-22T21:17:25.815Z,478.77
2018-12-22T21:19:56.073Z,523.80
2018-12-22T21:22:26.322Z,515.60
2018-12-22T21:24:56.649Z,566.37
2018-12-22T21:27:27.314Z,571.83
2018-12-22T21:29:57.433Z,559.97
2018-12-22T21:32:27.610Z,574.73
2018-12-22T21:34:58.192Z,571.50
2018-12-22T21:37:28.458Z,546.80
2018-12-22T21:39:59.341Z,547.47
2018-12-22T21:42:29.553Z,546.57
2018-12-22T21:45:00.528Z,536.80
2018-12-22T21:47:30.730Z,524.80
2018-12-22T21:50:00.952Z,535.40
2018-12-22T21:52:31.235Z,539.07
2018-12-22T21:55:01.422Z,515.13
2018-12-22T21:57:32.268Z,513.43
2018-12-22T22:00:02.473Z,536.93
2018-12-22T22:02:32.760Z,529.90
2018-12-22T22:05:02.976Z,522.07
2018-12-22T22:07:33.266Z,512.70
2018-12-22T22:10:03.664Z,508.33
2018-12-22T22:12:34.020Z,491.20
2018-12-22T22:15:04.394Z,484.23
2018-12-22T22:17:34.513Z,493.93
2018-12-22T22:20:07.128Z,484.50
2018-12-22T22:22:37.563Z,489.73
2018-12-22T22:25:07.911Z,491.43
2018-12-22T22:27:38.247Z,490.27
2018-12-22T22:30:08.849Z,486.80
2018-12-22T22:32:39.146Z,481.70
2018-12-22T22:35:09.383Z,479.87
2018-12-22T22:37:39.617Z,495.73
2018-12-22T22:40:09.851Z,481.33
2018-12-22T22:42:40.641Z,492.53
2018-12-22T22:45:11.019Z,475.50
2018-12-22T22:47:41.172Z,476.87
2018-12-22T22:50:11.272Z,487.50
2018-12-22T22:52:41.522Z,484.30
2018-12-22T22:55:11.827Z,486.63
2018-12-22T22:57:42.101Z,489.93
2018-12-22T23:00:20.748Z,491.93
2018-12-22T23:02:51.012Z,478.80
2018-12-22T23:05:21.224Z,491.90
2018-12-22T23:07:51.487Z,487.77
2018-12-22T23:10:22.139Z,485.73
2018-12-22T23:12:52.378Z,483.23
2018-12-22T23:15:22.613Z,480.00
2018-12-22T23:17:52.921Z,483.33
2018-12-22T23:20:23.184Z,476.73
2018-12-22T23:22:53.711Z,487.47
2018-12-22T23:25:24.039Z,499.00
2018-12-22T23:27:54.212Z,492.10
2018-12-22T23:30:24.476Z,490.50
2018-12-22T23:32:54.788Z,505.57
2018-12-22T23:35:25.210Z,484.33
2018-12-22T23:37:55.560Z,480.27
2018-12-22T23:40:25.916Z,472.20
2018-12-22T23:42:56.152Z,474.03
2018-12-22T23:45:27.072Z,467.33
2018-12-22T23:47:57.575Z,468.27
2018-12-22T23:50:27.992Z,479.40
2018-12-22T23:52:58.123Z,472.83
2018-12-22T23:55:28.300Z,487.60
2018-12-22T23:57:58.565Z,471.90
